Home > Products > Valid Products > TAF

000
FTPA31 PHFO 012100 AAA
TAFHNL
TAF AMD
PHNL 012105Z 0121/0224 07012G18KT P6SM FEW030 SCT060
     FM020500 06009KT P6SM FEW025 SCT060
     FM021900 06014G20KT P6SM FEW030 SCT050=



000
FTPA31 PHFO 012100 AAA
TAFHNL
TAF AMD
PHNL 012105Z 0121/0224 07012G18KT P6SM FEW030 SCT060
     FM020500 06009KT P6SM FEW025 SCT060
     FM021900 06014G20KT P6SM FEW030 SCT050=



000
FTPA31 PHFO 011700
TAFHNL
TAF
PHNL 011727Z 0118/0224 01005KT P6SM FEW025 BKN060
     FM012000 07012G18KT P6SM FEW030 SCT060
     FM020500 06009KT P6SM FEW025 SCT060
     FM021900 06014G20KT P6SM FEW030 SCT050=



000
FTPA31 PHFO 011700
TAFHNL
TAF
PHNL 011727Z 0118/0224 01005KT P6SM FEW025 BKN060
     FM012000 07012G18KT P6SM FEW030 SCT060
     FM020500 06009KT P6SM FEW025 SCT060
     FM021900 06014G20KT P6SM FEW030 SCT050=



000
FTPA31 PHFO 011700
TAFHNL
TAF
PHNL 011727Z 0118/0224 01005KT P6SM FEW025 BKN060
     FM012000 07012G18KT P6SM FEW030 SCT060
     FM020500 06009KT P6SM FEW025 SCT060
     FM021900 06014G20KT P6SM FEW030 SCT050=



000
FTPA31 PHFO 011700
TAFHNL
TAF
PHNL 011727Z 0118/0224 01005KT P6SM FEW025 BKN060
     FM012000 07012G18KT P6SM FEW030 SCT060
     FM020500 06009KT P6SM FEW025 SCT060
     FM021900 06014G20KT P6SM FEW030 SCT050=



000
FTPA31 PHFO 011500 AAA
TAFHNL
TAF AMD
PHNL 011508Z 0115/0218 01005KT P6SM FEW025 BKN060
     FM012000 07012G18KT P6SM FEW030 SCT060
     FM020500 06009KT P6SM FEW025 SCT060=



000
FTPA31 PHFO 011500 AAA
TAFHNL
TAF AMD
PHNL 011508Z 0115/0218 01005KT P6SM FEW025 BKN060
     FM012000 07012G18KT P6SM FEW030 SCT060
     FM020500 06009KT P6SM FEW025 SCT060=



000
FTPA31 PHFO 011500 AAA
TAFHNL
TAF AMD
PHNL 011508Z 0115/0218 01005KT P6SM FEW025 BKN060
     FM012000 07012G18KT P6SM FEW030 SCT060
     FM020500 06009KT P6SM FEW025 SCT060=



000
FTPA31 PHFO 011500 AAA
TAFHNL
TAF AMD
PHNL 011508Z 0115/0218 01005KT P6SM FEW025 BKN060
     FM012000 07012G18KT P6SM FEW030 SCT060
     FM020500 06009KT P6SM FEW025 SCT060=



000
FTPA31 PHFO 011100
TAFHNL
TAF
PHNL 011126Z 0112/0218 02005KT P6SM FEW025 SCT050
     FM012000 07012G18KT P6SM FEW030 SCT060
     FM020500 06009KT P6SM FEW025 SCT060=



000
FTPA31 PHFO 011100
TAFHNL
TAF
PHNL 011126Z 0112/0218 02005KT P6SM FEW025 SCT050
     FM012000 07012G18KT P6SM FEW030 SCT060
     FM020500 06009KT P6SM FEW025 SCT060=



000
FTPA31 PHFO 010900 AAA
TAFHNL
TAF AMD
PHNL 010906Z 0109/0212 34005KT P6SM FEW025 SCT060
     FM012000 08011KT P6SM FEW030 SCT060=



000
FTPA31 PHFO 010900 AAA
TAFHNL
TAF AMD
PHNL 010906Z 0109/0212 34005KT P6SM FEW025 SCT060
     FM012000 08011KT P6SM FEW030 SCT060=



000
FTPA31 PHFO 010500
TAFHNL
TAF
PHNL 010537Z 0106/0212 34004KT P6SM SCT025 BKN050
     FM010700 34005KT P6SM FEW025
     FM012000 08011KT P6SM FEW030 SCT060=



000
FTPA31 PHFO 010500
TAFHNL
TAF
PHNL 010537Z 0106/0212 34004KT P6SM SCT025 BKN050
     FM010700 34005KT P6SM FEW025
     FM012000 08011KT P6SM FEW030 SCT060=



000
FTPA31 PHFO 010500
TAFHNL
TAF
PHNL 010537Z 0106/0212 34004KT P6SM SCT025 BKN050
     FM010700 34005KT P6SM FEW025
     FM012000 08011KT P6SM FEW030 SCT060=



000
FTPA31 PHFO 010500
TAFHNL
TAF
PHNL 010537Z 0106/0212 34004KT P6SM SCT025 BKN050
     FM010700 34005KT P6SM FEW025
     FM012000 08011KT P6SM FEW030 SCT060=



000
FTPA31 PHFO 010300 AAA
TAFHNL
TAF AMD
PHNL 010312Z 0103/0206 22009KT P6SM VCSH SCT025 BKN040
     FM010500 05005KT P6SM FEW025 SCT060=



000
FTPA31 PHFO 010300 AAA
TAFHNL
TAF AMD
PHNL 010312Z 0103/0206 22009KT P6SM VCSH SCT025 BKN040
     FM010500 05005KT P6SM FEW025 SCT060=



000
FTPA31 PHFO 312300
TAFHNL
TAF
PHNL 312331Z 0100/0206 22009KT P6SM VCSH SCT025 BKN040
     FM010500 05005KT P6SM FEW025 SCT060=



000
FTPA31 PHFO 312300
TAFHNL
TAF
PHNL 312331Z 0100/0206 22009KT P6SM VCSH SCT025 BKN040
     FM010500 05005KT P6SM FEW025 SCT060=



000
FTPA31 PHFO 312300
TAFHNL
TAF
PHNL 312331Z 0100/0206 22009KT P6SM VCSH SCT025 BKN040
     FM010500 05005KT P6SM FEW025 SCT060=



000
FTPA31 PHFO 312100 AAA
TAFHNL
TAF AMD
PHNL 312109Z 3121/0124 22009KT P6SM VCSH SCT025 BKN040
     FM010500 05005KT P6SM FEW025 SCT060=



000
FTPA31 PHFO 312100 AAA
TAFHNL
TAF AMD
PHNL 312109Z 3121/0124 22009KT P6SM VCSH SCT025 BKN040
     FM010500 05005KT P6SM FEW025 SCT060=



000
FTPA31 PHFO 312100 AAA
TAFHNL
TAF AMD
PHNL 312109Z 3121/0124 22009KT P6SM VCSH SCT025 BKN040
     FM010500 05005KT P6SM FEW025 SCT060=



000
FTPA31 PHFO 311700
TAFHNL
TAF
PHNL 311737Z 3118/0124 VRB04KT P6SM VCSH SCT025 SCT070
     FM312000 16007KT P6SM SCT025 BKN070
     FM010000 21009KT P6SM VCSH SCT025 BKN040
     FM010500 05005KT P6SM FEW025 SCT060=



000
FTPA31 PHFO 311700
TAFHNL
TAF
PHNL 311737Z 3118/0124 VRB04KT P6SM VCSH SCT025 SCT070
     FM312000 16007KT P6SM SCT025 BKN070
     FM010000 21009KT P6SM VCSH SCT025 BKN040
     FM010500 05005KT P6SM FEW025 SCT060=



000
FTPA31 PHFO 311700
TAFHNL
TAF
PHNL 311737Z 3118/0124 VRB04KT P6SM VCSH SCT025 SCT070
     FM312000 16007KT P6SM SCT025 BKN070
     FM010000 21009KT P6SM VCSH SCT025 BKN040
     FM010500 05005KT P6SM FEW025 SCT060=



000
FTPA31 PHFO 311700
TAFHNL
TAF
PHNL 311737Z 3118/0124 VRB04KT P6SM VCSH SCT025 SCT070
     FM312000 16007KT P6SM SCT025 BKN070
     FM010000 21009KT P6SM VCSH SCT025 BKN040
     FM010500 05005KT P6SM FEW025 SCT060=



000
FTPA31 PHFO 311600 AAB
TAFHNL
TAF AMD
PHNL 311626Z 3116/0118 VRB04KT P6SM VCSH SCT025 SCT070
     FM312000 17008KT P6SM VCSH SCT025 BKN070
     FM010500 05005KT P6SM FEW025 SCT060=



000
FTPA31 PHFO 311600 AAB
TAFHNL
TAF AMD
PHNL 311626Z 3116/0118 VRB04KT P6SM VCSH SCT025 SCT070
     FM312000 17008KT P6SM VCSH SCT025 BKN070
     FM010500 05005KT P6SM FEW025 SCT060=



000
FTPA31 PHFO 311500 AAA
TAFHNL
TAF AMD
PHNL 311505Z 3115/0118 34005KT P6SM VCSH SCT025 SCT070
     FM312000 17008KT P6SM VCSH SCT025 BKN070
     FM010500 05005KT P6SM FEW025 SCT060=



000
FTPA31 PHFO 311500 AAA
TAFHNL
TAF AMD
PHNL 311505Z 3115/0118 34005KT P6SM VCSH SCT025 SCT070
     FM312000 17008KT P6SM VCSH SCT025 BKN070
     FM010500 05005KT P6SM FEW025 SCT060=



000
FTPA31 PHFO 311500 AAA
TAFHNL
TAF AMD
PHNL 311505Z 3115/0118 34005KT P6SM VCSH SCT025 SCT070
     FM312000 17008KT P6SM VCSH SCT025 BKN070
     FM010500 05005KT P6SM FEW025 SCT060=



000
FTPA31 PHFO 311100
TAFHNL
TAF
PHNL 311136Z 3112/0118 34005KT P6SM VCSH SCT025 SCT070
     FM312000 17008KT P6SM VCSH SCT025 BKN070
     FM010500 05005KT P6SM FEW025 SCT060=



000
FTPA31 PHFO 311100
TAFHNL
TAF
PHNL 311136Z 3112/0118 34005KT P6SM VCSH SCT025 SCT070
     FM312000 17008KT P6SM VCSH SCT025 BKN070
     FM010500 05005KT P6SM FEW025 SCT060=



000
FTPA31 PHFO 311100
TAFHNL
TAF
PHNL 311136Z 3112/0118 34005KT P6SM VCSH SCT025 SCT070
     FM312000 17008KT P6SM VCSH SCT025 BKN070
     FM010500 05005KT P6SM FEW025 SCT060=



000
FTPA31 PHFO 311100
TAFHNL
TAF
PHNL 311136Z 3112/0118 34005KT P6SM VCSH SCT025 SCT070
     FM312000 17008KT P6SM VCSH SCT025 BKN070
     FM010500 05005KT P6SM FEW025 SCT060=



000
FTPA31 PHFO 310900 AAA
TAFHNL
TAF AMD
PHNL 310931Z 3110/0112 34004KT P6SM VCSH SCT025 SCT070
     FM312000 16008KT P6SM VCSH SCT025 SCT070
     FM010500 05005KT P6SM FEW025 SCT060=



000
FTPA31 PHFO 310900 AAA
TAFHNL
TAF AMD
PHNL 310931Z 3110/0112 34004KT P6SM VCSH SCT025 SCT070
     FM312000 16008KT P6SM VCSH SCT025 SCT070
     FM010500 05005KT P6SM FEW025 SCT060=



000
FTPA31 PHFO 310500
TAFHNL
TAF
PHNL 310534Z 3106/0112 06008KT P6SM VCSH SCT025 SCT070
     FM312000 16008KT P6SM SCT025 SCT070
     FM010500 05005KT P6SM FEW025 SCT060=



000
FTPA31 PHFO 310500
TAFHNL
TAF
PHNL 310534Z 3106/0112 06008KT P6SM VCSH SCT025 SCT070
     FM312000 16008KT P6SM SCT025 SCT070
     FM010500 05005KT P6SM FEW025 SCT060=



000
FTPA31 PHFO 310500
TAFHNL
TAF
PHNL 310534Z 3106/0112 06008KT P6SM VCSH SCT025 SCT070
     FM312000 16008KT P6SM SCT025 SCT070
     FM010500 05005KT P6SM FEW025 SCT060=



000
FTPA31 PHFO 310500
TAFHNL
TAF
PHNL 310534Z 3106/0112 06008KT P6SM VCSH SCT025 SCT070
     FM312000 16008KT P6SM SCT025 SCT070
     FM010500 05005KT P6SM FEW025 SCT060=



000
FTPA31 PHFO 310300 AAA
TAFHNL
TAF AMD
PHNL 310306Z 3103/0106 07014G22KT P6SM FEW030 SCT060
     FM310500 06008KT P6SM VCSH SCT030 BKN050
     FM312000 16008KT P6SM FEW030 SCT050
     FM010500 05005KT P6SM FEW030 SCT050=



000
FTPA31 PHFO 302300
TAFHNL
TAF
PHNL 302336Z 3100/0106 07014G22KT P6SM FEW025 SCT040 BKN060
     FM310500 06008KT P6SM VCSH SCT030 BKN050
     FM312000 16008KT P6SM FEW030 SCT050
     FM010500 05005KT P6SM FEW030 SCT050=



000
FTPA31 PHFO 302300
TAFHNL
TAF
PHNL 302336Z 3100/0106 07014G22KT P6SM FEW025 SCT040 BKN060
     FM310500 06008KT P6SM VCSH SCT030 BKN050
     FM312000 16008KT P6SM FEW030 SCT050
     FM010500 05005KT P6SM FEW030 SCT050=



000
FTPA31 PHFO 302100 AAA
TAFHNL
TAF AMD
PHNL 302106Z 3021/3124 07014G22KT P6SM FEW025 SCT040 BKN060
     FM310500 06008KT P6SM VCSH SCT030 BKN050
     FM312000 16008KT P6SM FEW030 SCT050=



000
FTPA31 PHFO 302100 AAA
TAFHNL
TAF AMD
PHNL 302106Z 3021/3124 07014G22KT P6SM FEW025 SCT040 BKN060
     FM310500 06008KT P6SM VCSH SCT030 BKN050
     FM312000 16008KT P6SM FEW030 SCT050=



000
FTPA31 PHFO 301700
TAFHNL
TAF
PHNL 301739Z 3018/3124 07010KT P6SM VCSH SCT025 BKN050
      TEMPO 3018/3020 -SHRA
     FM302000 08014G22KT P6SM SCT030 BKN050
     FM310500 06008KT P6SM VCSH SCT030 BKN050
     FM312000 16008KT P6SM FEW030 SCT050=



000
FTPA31 PHFO 301700
TAFHNL
TAF
PHNL 301739Z 3018/3124 07010KT P6SM VCSH SCT025 BKN050
      TEMPO 3018/3020 -SHRA
     FM302000 08014G22KT P6SM SCT030 BKN050
     FM310500 06008KT P6SM VCSH SCT030 BKN050
     FM312000 16008KT P6SM FEW030 SCT050=



000
FTPA31 PHFO 301700
TAFHNL
TAF
PHNL 301739Z 3018/3124 07010KT P6SM VCSH SCT025 BKN050
      TEMPO 3018/3020 -SHRA
     FM302000 08014G22KT P6SM SCT030 BKN050
     FM310500 06008KT P6SM VCSH SCT030 BKN050
     FM312000 16008KT P6SM FEW030 SCT050=



000
FTPA31 PHFO 301700
TAFHNL
TAF
PHNL 301739Z 3018/3124 07010KT P6SM VCSH SCT025 BKN050
      TEMPO 3018/3020 -SHRA
     FM302000 08014G22KT P6SM SCT030 BKN050
     FM310500 06008KT P6SM VCSH SCT030 BKN050
     FM312000 16008KT P6SM FEW030 SCT050=



000
FTPA31 PHFO 301500 AAA
TAFHNL
TAF AMD
PHNL 301505Z 3015/3118 05010KT P6SM VCSH SCT030 BKN050
     FM302200 06012G22KT P6SM SCT030 BKN050
     FM310600 06008KT P6SM SCT030 BKN050=



000
FTPA31 PHFO 301500 AAA
TAFHNL
TAF AMD
PHNL 301505Z 3015/3118 05010KT P6SM VCSH SCT030 BKN050
     FM302200 06012G22KT P6SM SCT030 BKN050
     FM310600 06008KT P6SM SCT030 BKN050=



000
FTPA31 PHFO 301100
TAFHNL
TAF
PHNL 301120Z 3012/3118 05010KT P6SM VCSH SCT030 BKN050
     FM302200 06012G22KT P6SM SCT030 BKN050
     FM310600 06008KT P6SM SCT030 BKN050=



000
FTPA31 PHFO 301100
TAFHNL
TAF
PHNL 301120Z 3012/3118 05010KT P6SM VCSH SCT030 BKN050
     FM302200 06012G22KT P6SM SCT030 BKN050
     FM310600 06008KT P6SM SCT030 BKN050=



000
FTPA31 PHFO 301100
TAFHNL
TAF
PHNL 301120Z 3012/3118 05010KT P6SM VCSH SCT030 BKN050
     FM302200 06012G22KT P6SM SCT030 BKN050
     FM310600 06008KT P6SM SCT030 BKN050=



000
FTPA31 PHFO 301100
TAFHNL
TAF
PHNL 301120Z 3012/3118 05010KT P6SM VCSH SCT030 BKN050
     FM302200 06012G22KT P6SM SCT030 BKN050
     FM310600 06008KT P6SM SCT030 BKN050=



000
FTPA31 PHFO 300900 AAA
TAFHNL
TAF AMD
PHNL 300905Z 3009/3112 05008KT P6SM VCSH SCT030 BKN050
     FM302200 06012G22KT P6SM SCT030 BKN050
     FM310600 06008KT P6SM SCT030 BKN050=



000
FTPA31 PHFO 300900 AAA
TAFHNL
TAF AMD
PHNL 300905Z 3009/3112 05008KT P6SM VCSH SCT030 BKN050
     FM302200 06012G22KT P6SM SCT030 BKN050
     FM310600 06008KT P6SM SCT030 BKN050=



000
FTPA31 PHFO 300500
TAFHNL
TAF
PHNL 300526Z 3006/3112 05008KT P6SM VCSH SCT030 BKN050
     FM302200 06012G22KT P6SM SCT030 BKN050
     FM310600 06008KT P6SM SCT030 BKN050=



000
FTPA31 PHFO 300500
TAFHNL
TAF
PHNL 300526Z 3006/3112 05008KT P6SM VCSH SCT030 BKN050
     FM302200 06012G22KT P6SM SCT030 BKN050
     FM310600 06008KT P6SM SCT030 BKN050=



000
FTPA31 PHFO 300500
TAFHNL
TAF
PHNL 300526Z 3006/3112 05008KT P6SM VCSH SCT030 BKN050
     FM302200 06012G22KT P6SM SCT030 BKN050
     FM310600 06008KT P6SM SCT030 BKN050=



000
FTPA31 PHFO 300300 AAA
TAFHNL
TAF AMD
PHNL 300326Z 3003/3106 06013KT P6SM FEW030 BKN060
     FM300500 06008KT P6SM FEW025 SCT050
     FM302000 07012G18KT P6SM FEW030 SCT050
     FM310500 06009KT P6SM FEW025 SCT050=



000
FTPA31 PHFO 300300 AAA
TAFHNL
TAF AMD
PHNL 300326Z 3003/3106 06013KT P6SM FEW030 BKN060
     FM300500 06008KT P6SM FEW025 SCT050
     FM302000 07012G18KT P6SM FEW030 SCT050
     FM310500 06009KT P6SM FEW025 SCT050=



000
FTPA31 PHFO 300300 AAA
TAFHNL
TAF AMD
PHNL 300326Z 3003/3106 06013KT P6SM FEW030 BKN060
     FM300500 06008KT P6SM FEW025 SCT050
     FM302000 07012G18KT P6SM FEW030 SCT050
     FM310500 06009KT P6SM FEW025 SCT050=



000
FTPA31 PHFO 292300
TAFHNL
TAF
PHNL 292333Z 3000/3106 06013KT P6SM FEW030 BKN060
     FM300500 06008KT P6SM FEW025 SCT050
     FM302000 07012G18KT P6SM FEW030 SCT050
     FM310500 06009KT P6SM FEW025 SCT050=



000
FTPA31 PHFO 292300
TAFHNL
TAF
PHNL 292333Z 3000/3106 06013KT P6SM FEW030 BKN060
     FM300500 06008KT P6SM FEW025 SCT050
     FM302000 07012G18KT P6SM FEW030 SCT050
     FM310500 06009KT P6SM FEW025 SCT050=



    US Dept of Commerce
    National Oceanic and Atmospheric Administration
    National Weather Service
    1325 East West Highway
    Silver Spring, MD 20910
    Page Author: NWS Internet Services Team
Disclaimer
Information Quality
Credits
Glossary
Privacy Policy
Freedom of Information Act (FOIA)
About Us
Career Opportunities